KNEW

Lakefront Airport

New Orleans, Louisiana, USA
METAR KNEW 232253Z 28008KT 10SM CLR 11/05 A3017 RMK AO2 SLP210 T01110050
Observed Flight Rules
Jan-23 @ 22:53 UTC (45 minutes ago) Visual Flight Rules
Wind Visibility Clouds
280° at 8 knots 10 miles
  • Clear skies
Temperatures Readings
Current 11°C / 52°F
Dewpoint 5°C / 41°F
Humidity 67%
Altimeter 30.17" Hg
Pressure 1021 hPa
Elevation 3
METAR KNEW 232253Z 28008KT 10SM CLR 11/05 A3017 RMK AO2 SLP210 T01110050
Observed Flight Rules
Jan-23 @ 22:53 UTC
(45 minutes ago)
VFR
Wind Visibility
280° at 8 knots 10 miles
Clouds
  • Clear skies
Temperature Dewpoint
11°C / 52°F 5°C / 41°F
Humidity Altimeter Pressure
67% 30.17" Hg 1021 hPa